Time;durP1;ratioP1;P1;durP2;ratioP2;P2;SDS_P1;SDS_P2;PMS_P1;PMS_P2;Temp;Humidity;BMP_temperature;BMP_pressure;BME280_temperature;BME280_humidity;BME280_pressure;Samples;Min_cycle;Max_cycle;Signal;HPM_P1;HPM_P2
2023/01/18 00:00:49;;;;;;;46.17;24.08;;;;;;;1.19;67.90;99620.81;5072598;28;20035;-60
2023/01/18 00:03:15;;;;;;;44.88;21.65;;;;;;;1.32;67.81;99641.38;5072025;28;20109;-59
2023/01/18 00:05:41;;;;;;;44.60;22.23;;;;;;;1.38;67.53;99622.63;5072023;28;20429;-59
2023/01/18 00:08:11;;;;;;;43.38;22.75;;;;;;;1.40;67.79;99645.38;5072333;28;20036;-58
2023/01/18 00:10:37;;;;;;;44.67;23.63;;;;;;;1.33;67.60;99632.53;5071794;28;20444;-63
2023/01/18 00:13:03;;;;;;;46.70;22.63;;;;;;;1.28;67.61;99652.06;5074620;28;20033;-60
2023/01/18 00:15:33;;;;;;;43.50;23.75;;;;;;;1.28;67.98;99643.28;5075074;28;20035;-62
2023/01/18 00:17:58;;;;;;;47.65;25.15;;;;;;;1.17;67.74;99606.84;5075618;28;20036;-56
2023/01/18 00:20:25;;;;;;;44.55;23.60;;;;;;;1.29;68.39;99645.88;5076489;28;20035;-54
2023/01/18 00:22:51;;;;;;;51.35;23.63;;;;;;;1.25;67.87;99640.78;5076249;28;20047;-63
2023/01/18 00:25:19;;;;;;;45.28;23.30;;;;;;;1.31;68.16;99666.88;5075185;28;20017;-61
2023/01/18 00:27:48;;;;;;;47.60;23.40;;;;;;;1.33;68.19;99653.63;5075366;28;20047;-63
2023/01/18 00:30:16;;;;;;;46.40;24.15;;;;;;;1.11;68.19;99601.84;5076386;28;20044;-60
2023/01/18 00:32:42;;;;;;;46.33;23.00;;;;;;;1.21;67.72;99610.19;5075796;28;20032;-61
2023/01/18 00:35:08;;;;;;;46.22;23.58;;;;;;;1.36;68.02;99633.25;5075697;28;20115;-63
2023/01/18 00:37:34;;;;;;;50.15;24.45;;;;;;;1.41;68.24;99648.84;5075865;28;20128;-62
2023/01/18 00:40:00;;;;;;;47.35;24.77;;;;;;;1.39;68.34;99662.13;5076023;28;20036;-59
2023/01/18 00:45:09;;;;;;;51.95;24.40;;;;;;;1.38;68.41;99627.91;5075238;28;20066;-62
2023/01/18 00:47:35;;;;;;;48.05;23.60;;;;;;;1.47;67.83;99640.69;5075561;28;20061;-61
2023/01/18 00:50:00;;;;;;;49.65;24.38;;;;;;;1.44;68.13;99632.88;5075706;28;20028;-59
2023/01/18 00:52:26;;;;;;;54.10;25.20;;;;;;;1.36;68.57;99645.56;5075086;28;20067;-62
2023/01/18 00:54:51;;;;;;;47.15;24.40;;;;;;;1.42;68.18;99608.34;5075478;28;20035;-58
2023/01/18 00:57:17;;;;;;;44.40;22.67;;;;;;;1.48;68.09;99607.22;5075450;28;20033;-61
2023/01/18 00:59:42;;;;;;;49.08;22.73;;;;;;;1.50;67.95;99622.06;5075415;28;20816;-61
2023/01/18 01:02:08;;;;;;;53.50;24.00;;;;;;;1.39;68.42;99632.25;5074006;28;20459;-64
2023/01/18 01:07:17;;;;;;;46.47;24.25;;;;;;;1.36;68.63;99611.28;5074514;28;20063;-56
2023/01/18 01:09:43;;;;;;;49.42;26.08;;;;;;;1.32;69.13;99621.09;5074967;28;20107;-59
2023/01/18 01:26:06;;;;;;;40.55;21.00;;;;;;;1.43;68.65;99603.03;5074779;28;20382;-58
2023/01/18 01:28:34;;;;;;;47.67;22.88;;;;;;;1.41;68.86;99618.06;5074717;28;20029;-61
2023/01/18 01:31:00;;;;;;;41.22;21.30;;;;;;;1.40;68.82;99607.56;5075096;28;20025;-60
2023/01/18 01:33:27;;;;;;;40.42;19.85;;;;;;;1.40;69.16;99607.56;5074409;28;20036;-58
2023/01/18 01:36:04;;;;;;;41.67;21.25;;;;;;;1.47;68.69;99600.22;5074904;28;20055;-55
2023/01/18 01:38:30;;;;;;;41.90;21.23;;;;;;;1.34;69.16;99618.41;5074903;28;20033;-58
2023/01/18 01:41:25;;;;;;;37.42;15.93;;;;;;;1.61;68.46;99611.00;5073544;28;20085;-64
2023/01/18 01:43:58;;;;;;;37.00;19.75;;;;;;;1.52;68.08;99617.56;5073935;28;20098;-55
2023/01/18 01:46:36;;;;;;;40.55;21.35;;;;;;;1.35;68.95;99623.63;5074978;28;20029;-53
2023/01/18 01:49:01;;;;;;;41.85;22.20;;;;;;;1.49;68.28;99633.56;5074643;28;20075;-58
2023/01/18 01:51:27;;;;;;;41.05;21.20;;;;;;;1.39;68.34;99598.81;5074073;28;20034;-57
2023/01/18 01:53:54;;;;;;;44.90;22.92;;;;;;;1.31;69.03;99613.28;5074601;28;20028;-59
2023/01/18 01:56:20;;;;;;;40.55;20.98;;;;;;;1.24;68.83;99574.00;5074676;28;20035;-58
2023/01/18 01:58:51;;;;;;;41.28;20.80;;;;;;;1.46;68.85;99612.59;5073536;28;20089;-55
2023/01/18 02:01:16;;;;;;;42.53;21.55;;;;;;;1.40;68.61;99608.44;5073294;28;20067;-53
2023/01/18 02:03:42;;;;;;;41.25;22.15;;;;;;;1.43;68.83;99604.78;5073333;28;20052;-59
2023/01/18 02:06:21;;;;;;;38.58;21.35;;;;;;;1.53;68.21;99624.56;5074228;28;20043;-58
2023/01/18 02:08:47;;;;;;;39.75;21.02;;;;;;;1.53;68.22;99598.19;5074275;28;20983;-59
2023/01/18 02:11:12;;;;;;;34.05;19.00;;;;;;;1.49;68.25;99593.09;5072825;28;20099;-55
2023/01/18 02:13:38;;;;;;;34.70;19.90;;;;;;;1.43;68.46;99600.38;5074013;28;20145;-56
2023/01/18 02:16:17;;;;;;;37.78;20.58;;;;;;;1.48;68.57;99596.66;5074209;28;20116;-58
2023/01/18 02:18:55;;;;;;;34.03;17.55;;;;;;;1.53;68.15;99592.91;5073835;28;20360;-59
2023/01/18 02:21:35;;;;;;;38.13;19.73;;;;;;;1.61;68.14;99610.13;5073543;28;20067;-63
2023/01/18 02:24:26;;;;;;;36.08;20.27;;;;;;;1.51;68.57;99610.59;5073658;28;20086;-55
2023/01/18 02:27:14;;;;;;;34.88;19.38;;;;;;;1.55;68.48;99590.16;5073719;28;20075;-55
2023/01/18 02:29:48;;;;;;;38.40;21.10;;;;;;;1.61;68.02;99602.22;5073446;28;20472;-61
2023/01/18 02:32:25;;;;;;;40.53;21.25;;;;;;;1.34;68.10;99563.03;5072613;28;20507;-55
2023/01/18 02:35:08;;;;;;;37.13;20.77;;;;;;;1.66;68.07;99601.09;5073196;28;20070;-59
2023/01/18 02:38:11;;;;;;;34.13;19.92;;;;;;;1.62;68.41;99591.59;5073768;28;20112;-53
2023/01/18 02:40:52;;;;;;;33.58;17.17;;;;;;;1.58;68.13;99593.53;5067688;28;20087;-56
2023/01/18 02:48:51;;;;;;;36.38;21.70;;;;;;;1.42;67.92;99596.03;5072692;28;20041;-53
2023/01/18 02:51:16;;;;;;;38.63;21.92;;;;;;;1.30;68.25;99586.03;5073190;28;20032;-54
2023/01/18 02:53:44;;;;;;;41.20;22.65;;;;;;;1.33;68.20;99596.47;5073429;28;20120;-58
2023/01/18 02:56:15;;;;;;;37.58;21.67;;;;;;;1.33;68.72;99585.06;5072138;28;20089;-61
2023/01/18 02:58:52;;;;;;;38.38;21.45;;;;;;;1.34;68.33;99582.34;5071677;28;20024;-60
2023/01/18 03:01:25;;;;;;;40.78;20.08;;;;;;;1.41;68.43;99577.63;5072175;28;20050;-59
2023/01/18 03:03:58;;;;;;;33.60;20.15;;;;;;;1.48;68.07;99604.59;5071861;28;20036;-57
2023/01/18 03:06:27;;;;;;;36.28;21.38;;;;;;;1.40;68.09;99604.94;5072951;28;20043;-57
2023/01/18 03:08:55;;;;;;;40.30;21.17;;;;;;;1.41;68.55;99619.84;5071725;28;20391;-56
2023/01/18 03:11:39;;;;;;;36.75;20.63;;;;;;;1.51;68.18;99623.78;5072669;28;20094;-55
2023/01/18 03:14:35;;;;;;;38.40;20.00;;;;;;;1.64;67.95;99636.38;5052979;28;20068;-59
2023/01/18 03:17:19;;;;;;;37.78;20.52;;;;;;;1.52;67.89;99636.03;5052753;28;20029;-56
2023/01/18 03:25:33;;;;;;;37.70;20.98;;;;;;;1.27;67.36;99607.28;5069827;28;20037;-57
2023/01/18 03:33:45;;;;;;;30.25;16.75;;;;;;;1.58;66.92;99642.81;5072667;28;20035;-58
2023/01/18 03:36:13;;;;;;;31.48;18.38;;;;;;;1.51;66.38;99644.88;5072521;28;20126;-56
2023/01/18 03:38:42;;;;;;;37.45;20.00;;;;;;;1.44;67.18;99635.53;5071927;28;20036;-56
2023/01/18 03:41:11;;;;;;;34.67;19.38;;;;;;;1.31;66.89;99642.28;5072592;28;20060;-59
2023/01/18 03:43:39;;;;;;;37.90;19.90;;;;;;;1.48;66.86;99660.84;5072788;28;20067;-57
2023/01/18 03:46:06;;;;;;;35.28;19.60;;;;;;;1.41;66.65;99648.84;5071786;28;20490;-56
2023/01/18 03:48:35;;;;;;;33.90;19.65;;;;;;;1.47;66.40;99647.72;5070995;28;20032;-59
2023/01/18 03:51:13;;;;;;;39.20;19.08;;;;;;;1.57;66.50;99673.63;5073052;28;20032;-56
2023/01/18 03:53:47;;;;;;;34.15;18.65;;;;;;;1.47;65.91;99645.97;5071664;28;20041;-57
2023/01/18 03:56:17;;;;;;;32.95;18.73;;;;;;;1.45;66.17;99641.66;5072455;28;20063;-59
2023/01/18 03:58:44;;;;;;;32.50;18.38;;;;;;;1.39;66.38;99645.44;5072074;28;20367;-56
2023/01/18 04:01:10;;;;;;;31.10;17.83;;;;;;;1.42;66.10;99669.03;5072518;28;20058;-60
2023/01/18 04:03:36;;;;;;;30.60;17.65;;;;;;;1.31;66.20;99663.41;5071961;28;20376;-56
2023/01/18 04:06:04;;;;;;;36.17;19.13;;;;;;;1.41;66.21;99649.72;5072543;28;20044;-57
2023/01/18 04:08:30;;;;;;;34.08;20.17;;;;;;;1.45;65.92;99662.78;5072733;28;20514;-58
2023/01/18 04:10:55;;;;;;;34.95;19.20;;;;;;;1.28;65.91;99636.25;5072464;28;20036;-56
2023/01/18 04:13:21;;;;;;;36.75;18.88;;;;;;;1.23;66.33;99621.53;5072183;28;20024;-59
2023/01/18 04:15:46;;;;;;;32.13;18.13;;;;;;;1.42;66.06;99651.44;5072039;28;20134;-55
2023/01/18 04:18:11;;;;;;;32.45;17.95;;;;;;;1.42;66.19;99647.94;5071836;28;20051;-60
2023/01/18 04:20:37;;;;;;;35.10;18.13;;;;;;;1.40;66.39;99666.47;5072318;28;20028;-56
2023/01/18 04:23:03;;;;;;;31.73;17.88;;;;;;;1.48;66.11;99667.91;5072305;28;20122;-53
2023/01/18 04:25:28;;;;;;;32.47;17.75;;;;;;;1.46;65.69;99675.91;5071549;28;20032;-60
2023/01/18 04:27:53;;;;;;;35.88;17.88;;;;;;;1.45;66.19;99668.91;5053883;28;20033;-53
2023/01/18 04:30:19;;;;;;;29.80;17.05;;;;;;;1.47;66.32;99674.97;5072367;28;20027;-54
2023/01/18 04:32:45;;;;;;;31.65;17.20;;;;;;;1.43;65.99;99662.81;5072069;28;20082;-58
2023/01/18 04:35:12;;;;;;;31.58;18.10;;;;;;;1.58;65.29;99674.50;5071362;28;20048;-59
2023/01/18 04:37:37;;;;;;;30.75;17.58;;;;;;;1.56;65.50;99678.94;5071891;28;20479;-58
2023/01/18 04:40:04;;;;;;;33.95;17.92;;;;;;;1.51;65.33;99668.63;5072456;28;20025;-62
2023/01/18 04:42:30;;;;;;;29.77;17.48;;;;;;;1.53;65.39;99679.97;5071624;28;20101;-56
2023/01/18 04:44:55;;;;;;;31.65;18.05;;;;;;;1.40;65.22;99660.34;5071783;28;20473;-56
2023/01/18 04:47:21;;;;;;;31.42;16.33;;;;;;;1.53;64.95;99685.25;5071272;28;20500;-58
2023/01/18 04:49:46;;;;;;;32.67;17.83;;;;;;;1.52;65.41;99685.31;5071892;28;20031;-62
2023/01/18 04:52:12;;;;;;;32.30;17.10;;;;;;;1.43;65.35;99673.38;5071294;28;20037;-57
2023/01/18 04:54:37;;;;;;;33.97;18.27;;;;;;;1.43;65.88;99670.75;5071520;28;20063;-58
2023/01/18 04:57:03;;;;;;;33.10;18.25;;;;;;;1.47;65.99;99682.03;5071828;28;20025;-61
2023/01/18 04:59:28;;;;;;;28.67;15.10;;;;;;;1.54;65.60;99671.13;5074344;28;20029;-56
2023/01/18 05:01:54;;;;;;;32.53;18.23;;;;;;;1.58;65.39;99682.41;5074850;28;20029;-59
2023/01/18 05:04:20;;;;;;;32.65;17.15;;;;;;;1.54;65.56;99676.41;5074456;28;20028;-57
2023/01/18 05:06:48;;;;;;;30.15;16.42;;;;;;;1.62;65.28;99720.06;5075202;28;20047;-58
2023/01/18 05:09:14;;;;;;;30.35;16.92;;;;;;;1.58;65.32;99692.97;5074389;28;20039;-58
2023/01/18 05:11:41;;;;;;;32.05;17.70;;;;;;;1.56;65.33;99707.97;5074736;28;20029;-59
2023/01/18 05:14:07;;;;;;;30.17;16.58;;;;;;;1.60;65.28;99709.59;5075401;28;20111;-57
2023/01/18 05:16:33;;;;;;;34.35;18.65;;;;;;;1.46;65.62;99701.41;5075317;28;20033;-62
2023/01/18 05:18:59;;;;;;;32.42;17.77;;;;;;;1.48;65.88;99711.00;5074366;28;20048;-55
2023/01/18 05:21:24;;;;;;;28.85;16.83;;;;;;;1.43;65.61;99713.81;5075239;28;20032;-59
2023/01/18 05:23:49;;;;;;;30.40;16.88;;;;;;;1.60;65.53;99722.78;5074871;28;20062;-59
2023/01/18 05:26:20;;;;;;;31.83;18.05;;;;;;;1.52;65.89;99709.94;5074493;28;20044;-61
2023/01/18 05:28:46;;;;;;;30.95;16.73;;;;;;;1.52;65.66;99728.41;5073767;28;20038;-57
2023/01/18 05:31:17;;;;;;;33.35;18.08;;;;;;;1.53;65.76;99735.38;5056998;28;20038;-55
2023/01/18 05:33:42;;;;;;;30.17;17.50;;;;;;;1.63;65.38;99724.41;5056430;28;20484;-57
2023/01/18 05:36:08;;;;;;;31.48;17.65;;;;;;;1.53;65.48;99727.47;5073643;28;20133;-54
2023/01/18 05:38:34;;;;;;;27.70;16.83;;;;;;;1.44;65.23;99696.19;5075004;28;20075;-59
2023/01/18 05:40:59;;;;;;;38.28;17.17;;;;;;;1.69;64.58;99730.25;5074342;28;20040;-56
2023/01/18 05:43:26;;;;;;;38.58;19.55;;;;;;;1.39;64.97;99691.16;5074227;28;20060;-58
2023/01/18 05:45:52;;;;;;;39.58;19.10;;;;;;;1.60;65.44;99730.69;5074747;28;20040;-57
2023/01/18 05:48:18;;;;;;;34.95;19.05;;;;;;;1.55;65.27;99728.25;5074552;28;20035;-64
2023/01/18 05:50:45;;;;;;;30.13;16.73;;;;;;;1.54;65.73;99715.13;5074282;28;20063;-60
2023/01/18 05:53:13;;;;;;;32.55;19.17;;;;;;;1.56;65.26;99724.69;5074120;28;20086;-60
2023/01/18 05:55:39;;;;;;;31.52;17.83;;;;;;;1.41;65.23;99683.16;5075020;28;20452;-59
2023/01/18 05:58:04;;;;;;;37.45;18.60;;;;;;;1.55;65.95;99730.91;5073105;28;20033;-62
2023/01/18 06:00:30;;;;;;;34.47;18.70;;;;;;;1.63;65.19;99740.25;5074071;28;20105;-58
2023/01/18 06:02:55;;;;;;;31.90;16.35;;;;;;;1.66;65.48;99737.47;5073248;28;20039;-56
2023/01/18 06:05:23;;;;;;;36.67;19.45;;;;;;;1.69;65.07;99725.00;5073767;28;20062;-58
2023/01/18 06:07:48;;;;;;;37.20;18.85;;;;;;;1.61;65.53;99721.84;5073858;28;20035;-52
2023/01/18 06:10:14;;;;;;;35.58;18.92;;;;;;;1.43;65.65;99695.34;5072874;28;20108;-54
2023/01/18 06:12:40;;;;;;;28.35;15.77;;;;;;;1.74;65.39;99727.44;5073942;28;20033;-47
2023/01/18 06:15:07;;;;;;;34.70;19.88;;;;;;;1.68;65.42;99728.56;5072669;28;20478;-52
2023/01/18 06:17:33;;;;;;;27.92;17.67;;;;;;;1.76;64.80;99764.28;5074116;28;20086;-53
2023/01/18 06:19:59;;;;;;;35.35;18.48;;;;;;;1.81;64.97;99736.78;5073674;28;20024;-56
2023/01/18 06:22:24;;;;;;;32.40;18.23;;;;;;;1.67;64.74;99713.66;5073424;28;20453;-58
2023/01/18 06:24:50;;;;;;;28.65;17.55;;;;;;;1.95;64.19;99753.78;5073955;28;20028;-56
2023/01/18 06:27:15;;;;;;;35.60;18.67;;;;;;;1.89;64.65;99751.41;5070432;28;20025;-56
2023/01/18 06:29:41;;;;;;;29.77;17.73;;;;;;;1.84;64.51;99762.19;5071913;28;20111;-67
2023/01/18 06:32:06;;;;;;;31.60;18.00;;;;;;;1.82;64.82;99762.25;5073439;28;20111;-60
2023/01/18 06:34:32;;;;;;;33.83;18.27;;;;;;;2.06;63.72;99766.47;5073517;28;20190;-59
2023/01/18 06:36:58;;;;;;;39.80;18.92;;;;;;;1.82;64.18;99766.69;5073129;28;20476;-57
2023/01/18 06:39:24;;;;;;;30.73;18.25;;;;;;;1.77;64.68;99764.25;5062278;28;20056;-57
2023/01/18 06:41:49;;;;;;;32.08;17.42;;;;;;;1.77;64.93;99771.28;5072025;28;20437;-56
2023/01/18 06:44:15;;;;;;;28.92;17.02;;;;;;;1.83;64.65;99774.50;5073366;28;20461;-57
2023/01/18 06:46:43;;;;;;;29.00;18.13;;;;;;;1.80;64.67;99772.00;5072135;28;20115;-65
2023/01/18 06:49:10;;;;;;;35.33;19.23;;;;;;;1.73;64.88;99770.59;5072509;28;20044;-58
2023/01/18 06:51:36;;;;;;;30.67;17.88;;;;;;;1.85;64.53;99799.06;5071362;28;20040;-56
2023/01/18 06:54:01;;;;;;;32.53;17.80;;;;;;;1.79;65.11;99772.06;5072661;28;20127;-57
2023/01/18 06:56:28;;;;;;;29.85;17.10;;;;;;;1.86;64.48;99784.09;5072561;28;20107;-57
2023/01/18 06:58:56;;;;;;;31.17;17.55;;;;;;;1.84;64.45;99789.44;5072212;28;20037;-55
2023/01/18 07:01:22;;;;;;;28.48;14.95;;;;;;;1.95;64.50;99799.50;5072660;28;20142;-56
2023/01/18 07:03:48;;;;;;;33.17;18.45;;;;;;;1.83;64.06;99779.78;5072708;28;20291;-55
2023/01/18 07:06:14;;;;;;;33.95;18.60;;;;;;;1.82;64.65;99793.91;5072177;28;20043;-58
2023/01/18 07:08:39;;;;;;;36.97;17.98;;;;;;;1.74;64.49;99774.94;5072576;28;20459;-55
2023/01/18 07:11:07;;;;;;;28.65;17.55;;;;;;;1.85;64.03;99792.94;5072651;28;20028;-57
2023/01/18 07:13:33;;;;;;;30.90;17.50;;;;;;;1.81;64.14;99802.78;5072680;28;20102;-52
2023/01/18 07:16:00;;;;;;;31.40;17.27;;;;;;;1.77;64.35;99801.19;5072717;28;20029;-55
2023/01/18 07:18:28;;;;;;;38.15;17.55;;;;;;;1.61;64.76;99774.63;5072412;28;20123;-55
2023/01/18 07:21:08;;;;;;;33.75;17.65;;;;;;;1.91;64.72;99805.84;5072095;28;20036;-57
2023/01/18 07:23:35;;;;;;;33.85;17.60;;;;;;;1.89;64.75;99791.88;5072358;28;20075;-54
2023/01/18 07:26:08;;;;;;;30.10;15.52;;;;;;;1.93;64.53;99819.84;5072529;28;20428;-59
2023/01/18 07:28:35;;;;;;;31.70;17.48;;;;;;;1.97;64.04;99813.50;5071118;28;20461;-58
2023/01/18 07:31:01;;;;;;;30.98;18.08;;;;;;;1.96;63.88;99801.22;5072256;28;20094;-58
2023/01/18 07:33:28;;;;;;;34.20;18.35;;;;;;;1.92;63.86;99809.34;5072902;28;20028;-58
2023/01/18 07:35:55;;;;;;;32.08;18.80;;;;;;;1.88;64.07;99791.91;5072486;28;20064;-59
2023/01/18 07:38:21;;;;;;;30.65;18.13;;;;;;;1.91;64.48;99811.13;5072319;28;20040;-58
2023/01/18 07:40:47;;;;;;;35.42;17.45;;;;;;;2.08;63.01;99809.53;5072565;28;20028;-57
2023/01/18 07:43:14;;;;;;;32.53;17.10;;;;;;;2.01;63.54;99795.75;5072089;28;20039;-57
2023/01/18 07:45:40;;;;;;;30.83;16.90;;;;;;;1.94;63.63;99818.06;5072143;28;20101;-62
2023/01/18 07:48:06;;;;;;;31.48;17.85;;;;;;;1.98;63.92;99801.16;5072484;28;20032;-53
2023/01/18 07:50:35;;;;;;;34.28;17.75;;;;;;;1.96;63.90;99785.38;5071942;28;20045;-55
2023/01/18 07:53:07;;;;;;;31.92;17.10;;;;;;;2.05;63.45;99799.94;5071484;28;20094;-58
2023/01/18 07:55:33;;;;;;;36.78;17.40;;;;;;;1.99;63.62;99816.06;5070940;28;20461;-58
2023/01/18 07:57:59;;;;;;;33.25;17.30;;;;;;;1.98;63.46;99807.28;5071961;28;20093;-57
2023/01/18 08:00:25;;;;;;;36.78;18.35;;;;;;;1.98;63.73;99798.53;5071856;28;20024;-56
2023/01/18 08:02:52;;;;;;;32.70;16.80;;;;;;;1.91;63.78;99778.56;5072227;28;20123;-54
2023/01/18 08:05:22;;;;;;;35.72;18.38;;;;;;;1.90;63.81;99793.56;5071341;28;20033;-58
2023/01/18 08:07:52;;;;;;;34.15;17.58;;;;;;;2.04;63.83;99808.78;5066294;28;20069;-59
2023/01/18 08:10:19;;;;;;;33.72;17.10;;;;;;;1.98;64.12;99794.06;5065229;28;20645;-56
2023/01/18 08:12:44;;;;;;;30.98;18.20;;;;;;;2.00;64.20;99786.09;5069030;28;20029;-61
2023/01/18 08:15:10;;;;;;;30.85;17.52;;;;;;;1.97;64.46;99770.41;5069205;28;20032;-55
2023/01/18 08:17:36;;;;;;;32.38;18.27;;;;;;;2.03;64.07;99782.44;5071647;28;20025;-58
2023/01/18 08:20:04;;;;;;;33.55;18.58;;;;;;;2.12;63.51;99797.88;5070623;28;20090;-58
2023/01/18 08:22:30;;;;;;;32.78;17.13;;;;;;;2.13;64.23;99787.22;5062939;28;20106;-59
2023/01/18 08:24:56;;;;;;;26.40;13.38;;;;;;;2.31;63.44;99807.59;5069564;28;20119;-60
2023/01/18 08:27:21;;;;;;;30.40;17.23;;;;;;;2.17;63.67;99802.94;5071479;28;20497;-59
2023/01/18 08:29:47;;;;;;;32.92;16.67;;;;;;;2.14;63.61;99802.16;5071827;28;20035;-62
2023/01/18 08:32:13;;;;;;;34.13;18.60;;;;;;;2.19;64.05;99796.66;5071841;28;20036;-62
2023/01/18 08:34:39;;;;;;;36.75;17.13;;;;;;;2.15;63.96;99801.22;5071056;28;20052;-57
2023/01/18 08:37:04;;;;;;;32.47;18.55;;;;;;;2.08;63.77;99789.22;5072708;28;20878;-58
2023/01/18 08:39:30;;;;;;;31.45;17.85;;;;;;;2.21;63.80;99800.09;5076021;28;20093;-55
2023/01/18 08:41:56;;;;;;;36.35;17.98;;;;;;;2.26;63.54;99807.81;5075673;28;20058;-57
2023/01/18 08:44:22;;;;;;;33.92;17.38;;;;;;;2.37;62.96;99804.66;5074047;28;20073;-58
2023/01/18 08:46:48;;;;;;;31.63;17.42;;;;;;;2.33;63.90;99814.50;5074247;28;20349;-58
2023/01/18 08:49:15;;;;;;;34.92;18.17;;;;;;;2.40;63.23;99812.44;5074149;28;20024;-54
2023/01/18 08:51:40;;;;;;;34.38;17.67;;;;;;;2.28;63.53;99782.19;5075345;28;20040;-56
2023/01/18 08:54:06;;;;;;;33.83;17.58;;;;;;;2.33;63.60;99798.66;5074689;28;20028;-53
2023/01/18 08:56:32;;;;;;;35.42;17.98;;;;;;;2.32;63.84;99794.31;5075265;28;20468;-55
2023/01/18 08:58:57;;;;;;;36.30;17.98;;;;;;;2.40;63.75;99804.53;5074482;28;20444;-56
2023/01/18 09:01:23;;;;;;;31.95;17.85;;;;;;;2.54;63.14;99806.50;5073108;28;20111;-56
2023/01/18 09:03:49;;;;;;;25.65;14.68;;;;;;;2.64;62.23;99799.84;5074031;28;20028;-58
2023/01/18 09:06:16;;;;;;;33.78;17.73;;;;;;;2.50;62.67;99815.50;5073887;28;20028;-58
2023/01/18 09:08:41;;;;;;;34.58;18.42;;;;;;;2.41;63.36;99808.88;5072270;28;20032;-58
2023/01/18 09:11:09;;;;;;;37.65;17.90;;;;;;;2.49;62.77;99808.53;5074284;28;20032;-57
2023/01/18 09:13:35;;;;;;;35.13;16.85;;;;;;;2.57;62.55;99825.72;5075223;28;20060;-59
2023/01/18 09:16:06;;;;;;;40.45;17.38;;;;;;;2.59;62.92;99796.56;5074725;28;20063;-56
2023/01/18 09:18:32;;;;;;;38.80;19.20;;;;;;;2.42;63.03;99808.81;5074626;28;20024;-55
2023/01/18 09:20:58;;;;;;;39.97;17.52;;;;;;;2.47;63.23;99823.59;5066273;28;20102;-63
2023/01/18 09:23:24;;;;;;;36.72;18.83;;;;;;;2.35;63.65;99823.22;5062850;28;20040;-59
2023/01/18 09:26:01;;;;;;;34.60;18.13;;;;;;;2.29;63.75;99791.81;5054369;28;20346;-60
2023/01/18 09:28:27;;;;;;;37.78;18.88;;;;;;;2.46;64.10;99835.94;5055079;28;20056;-60
2023/01/18 09:30:52;;;;;;;37.35;17.67;;;;;;;2.52;63.85;99845.38;5054335;28;20460;-57
2023/01/18 09:33:18;;;;;;;37.60;19.55;;;;;;;2.49;63.45;99834.94;5054466;28;20453;-63
2023/01/18 09:35:43;;;;;;;36.08;17.10;;;;;;;2.48;63.94;99843.81;5065944;28;20499;-61
2023/01/18 09:38:11;;;;;;;35.92;18.10;;;;;;;2.43;64.14;99854.59;5073653;28;20043;-58
2023/01/18 09:40:44;;;;;;;36.22;18.13;;;;;;;2.51;63.90;99825.16;5074220;28;20078;-56
2023/01/18 09:43:32;;;;;;;41.00;20.23;;;;;;;2.49;64.53;99845.53;5073398;28;20461;-60
2023/01/18 09:45:58;;;;;;;38.13;18.85;;;;;;;2.47;64.26;99858.78;5072184;28;20032;-58
2023/01/18 09:48:36;;;;;;;37.00;19.67;;;;;;;2.55;64.15;99840.81;5072664;28;20044;-58
2023/01/18 09:51:08;;;;;;;38.75;18.58;;;;;;;2.41;65.01;99844.09;5073327;28;20029;-54
2023/01/18 09:54:22;;;;;;;35.33;19.08;;;;;;;2.44;64.32;99824.59;5069747;28;20055;-57
2023/01/18 09:57:25;;;;;;;34.85;18.40;;;;;;;2.51;64.14;99838.38;5030052;28;20474;-53
2023/01/18 09:59:51;;;;;;;31.50;17.60;;;;;;;2.48;64.67;99822.66;5040031;28;20040;-58
2023/01/18 10:02:22;;;;;;;36.08;17.77;;;;;;;2.53;64.24;99825.94;5073537;28;20032;-58
2023/01/18 10:04:57;;;;;;;38.45;18.17;;;;;;;2.55;64.79;99826.72;5073577;28;20028;-56
2023/01/18 10:07:26;;;;;;;39.90;20.38;;;;;;;2.59;64.31;99838.84;5072459;28;20039;-54
2023/01/18 10:09:58;;;;;;;35.83;19.17;;;;;;;2.55;64.95;99845.22;5072679;28;20040;-57
2023/01/18 10:12:46;;;;;;;33.65;18.77;;;;;;;2.59;64.29;99825.63;5073366;28;20032;-57
2023/01/18 10:15:19;;;;;;;39.08;19.77;;;;;;;2.65;64.63;99838.59;5073486;28;20040;-57
2023/01/18 10:17:46;;;;;;;26.35;12.65;;;;;;;2.85;64.45;99844.69;5074019;28;20062;-66
2023/01/18 10:20:22;;;;;;;36.65;18.65;;;;;;;2.73;63.58;99839.06;5073911;28;20338;-54
2023/01/18 10:22:57;;;;;;;34.05;19.08;;;;;;;2.65;64.56;99843.00;5073182;28;20029;-51
2023/01/18 10:25:31;;;;;;;36.50;18.65;;;;;;;2.69;64.43;99847.22;5073281;28;20126;-57
2023/01/18 10:27:57;;;;;;;37.10;18.40;;;;;;;2.57;64.75;99827.50;5070593;28;20437;-56
2023/01/18 10:30:31;;;;;;;36.42;19.15;;;;;;;2.56;64.28;99850.44;5072045;28;20043;-56
2023/01/18 10:33:00;;;;;;;38.33;19.55;;;;;;;2.61;64.90;99834.34;5072770;28;20123;-55
2023/01/18 10:35:34;;;;;;;36.85;18.42;;;;;;;2.61;64.72;99823.78;5073752;28;20058;-54
2023/01/18 10:38:04;;;;;;;34.22;18.45;;;;;;;2.63;65.07;99827.19;5072580;28;20464;-62
2023/01/18 10:40:31;;;;;;;35.33;17.67;;;;;;;2.72;64.31;99824.13;5071901;28;20111;-57
2023/01/18 10:42:59;;;;;;;33.28;17.25;;;;;;;2.66;64.60;99831.50;5073130;28;20040;-56
2023/01/18 10:45:29;;;;;;;36.72;18.52;;;;;;;2.66;64.67;99818.28;5072443;28;20029;-55
2023/01/18 10:47:57;;;;;;;40.90;19.92;;;;;;;2.71;64.56;99825.06;5073027;28;20056;-58
2023/01/18 10:50:34;;;;;;;35.50;19.73;;;;;;;2.65;64.58;99817.44;5072109;28;20470;-58
2023/01/18 10:53:20;;;;;;;35.17;19.30;;;;;;;2.61;64.63;99842.28;5072926;28;20036;-56
2023/01/18 10:55:51;;;;;;;34.60;17.48;;;;;;;2.60;65.13;99842.38;5059037;28;20444;-55
2023/01/18 10:58:25;;;;;;;36.55;18.83;;;;;;;2.61;65.34;99829.06;5072278;28;20040;-61
2023/01/18 11:00:54;;;;;;;36.80;19.50;;;;;;;2.70;64.97;99836.56;5072705;28;20071;-56
2023/01/18 11:03:21;;;;;;;36.40;19.17;;;;;;;2.64;65.55;99839.50;5072480;28;20036;-58
2023/01/18 11:05:47;;;;;;;38.28;19.83;;;;;;;2.35;65.53;99785.38;5070180;28;20024;-69
2023/01/18 11:08:20;;;;;;;36.25;19.70;;;;;;;2.69;65.16;99842.78;5073253;28;20353;-57
2023/01/18 11:10:57;;;;;;;35.58;20.23;;;;;;;2.68;65.52;99834.91;5069343;28;20030;-53
2023/01/18 11:13:26;;;;;;;37.85;19.45;;;;;;;2.76;64.83;99821.34;5072487;28;20040;-60
2023/01/18 11:16:13;;;;;;;38.35;20.80;;;;;;;2.64;65.13;99806.94;5072215;28;20060;-55
2023/01/18 11:19:00;;;;;;;37.40;20.38;;;;;;;2.77;65.52;99825.69;5071940;28;20036;-59
2023/01/18 11:21:39;;;;;;;39.33;19.90;;;;;;;2.56;65.54;99807.28;5072136;28;20078;-59
2023/01/18 11:24:09;;;;;;;39.55;20.40;;;;;;;2.63;65.61;99816.63;5071957;28;20500;-58
2023/01/18 11:26:50;;;;;;;30.70;18.75;;;;;;;2.67;66.58;99815.56;5072120;28;20036;-55
2023/01/18 11:29:16;;;;;;;40.53;20.30;;;;;;;2.55;65.08;99779.16;5071752;28;20298;-55
2023/01/18 11:31:45;;;;;;;38.20;20.30;;;;;;;2.70;65.74;99818.06;5072668;28;20108;-55
2023/01/18 11:34:40;;;;;;;36.03;20.63;;;;;;;2.64;66.05;99802.47;5072224;28;20062;-57
2023/01/18 11:37:33;;;;;;;41.83;20.88;;;;;;;2.43;66.76;99785.88;5072004;28;20116;-51
2023/01/18 11:40:25;;;;;;;32.05;17.48;;;;;;;2.67;65.74;99805.00;5067465;28;20341;-51
2023/01/18 11:42:57;;;;;;;42.30;21.15;;;;;;;2.54;66.18;99809.16;5070397;28;20107;-53
2023/01/18 11:45:29;;;;;;;36.45;16.63;;;;;;;2.80;65.55;99801.75;5069222;28;20033;-55
2023/01/18 11:48:22;;;;;;;41.30;19.08;;;;;;;2.58;66.23;99813.34;5071266;28;20109;-56
2023/01/18 11:50:58;;;;;;;33.00;15.25;;;;;;;2.55;66.06;99810.88;5070170;28;20086;-52
2023/01/18 11:53:40;;;;;;;37.42;18.08;;;;;;;2.55;65.74;99803.81;5070180;28;20033;-55
2023/01/18 11:56:12;;;;;;;39.40;18.50;;;;;;;2.51;66.21;99804.00;5069788;28;20068;-57
2023/01/18 11:58:39;;;;;;;34.17;19.38;;;;;;;2.58;66.35;99811.59;5071692;28;20128;-56
2023/01/18 12:01:42;;;;;;;33.65;18.17;;;;;;;2.44;65.73;99772.59;5072156;28;20035;-54
2023/01/18 12:04:35;;;;;;;32.45;19.00;;;;;;;2.83;65.31;99823.63;5071665;28;20115;-57
2023/01/18 12:07:12;;;;;;;37.97;20.13;;;;;;;2.63;65.53;99810.50;5071877;28;20052;-57
2023/01/18 12:09:59;;;;;;;34.75;18.52;;;;;;;2.68;66.03;99806.72;5074958;28;20078;-56
2023/01/18 12:12:34;;;;;;;37.08;18.73;;;;;;;2.54;64.98;99794.16;5073316;28;20085;-58